Time;durP1;ratioP1;P1;durP2;ratioP2;P2;SDS_P1;SDS_P2;PMS_P1;PMS_P2;Temp;Humidity;BMP_temperature;BMP_pressure;BME280_temperature;BME280_humidity;BME280_pressure;Samples;Min_cycle;Max_cycle;Signal;HPM_P1;HPM_P2
2022/05/13 00:00:52;;;;;;;;;;;14.70;99.90;;;;;;5082221;28;19908;-72
2022/05/13 00:03:23;;;;;;;;;;;14.60;99.90;;;;;;5075355;28;19978;-73
2022/05/13 00:05:52;;;;;;;;;;;14.60;99.90;;;;;;5075475;28;19923;-73
2022/05/13 00:08:18;;;;;;;;;;;14.50;99.90;;;;;;5079840;28;19912;-73
2022/05/13 00:10:44;;;;;;;;;;;14.40;99.90;;;;;;5085119;28;19943;-73
2022/05/13 00:16:12;;;;;;;;;;;14.30;99.90;;;;;;5089523;28;19938;-81
2022/05/13 00:21:41;;;;;;;;;;;14.20;99.90;;;;;;5055216;28;19955;-81
2022/05/13 00:30:13;;;;;;;;;;;13.90;99.90;;;;;;5088948;28;19912;-73
2022/05/13 00:32:39;;;;;;;;;;;13.80;99.90;;;;;;5084096;28;19935;-73
2022/05/13 00:35:07;;;;;;;;;;;13.80;99.90;;;;;;5093152;28;19920;-73
2022/05/13 00:37:33;;;;;;;;;;;13.80;99.90;;;;;;5094899;28;19908;-73
2022/05/13 00:39:59;;;;;;;;;;;13.70;99.90;;;;;;5082347;28;19912;-72
2022/05/13 00:42:25;;;;;;;;;;;13.60;99.90;;;;;;5094963;28;20323;-73
2022/05/13 00:45:14;;;;;;;;;;;13.50;99.90;;;;;;5080722;28;20329;-81
2022/05/13 00:53:46;;;;;;;;;;;13.30;99.90;;;;;;5087336;28;19959;-81
2022/05/13 01:05:41;;;;;;;;;;;13.00;1.00;;;;;;5065238;28;19928;-80
2022/05/13 01:08:35;;;;;;;;;;;12.90;1.00;;;;;;5074396;28;19999;-81
2022/05/13 01:14:09;;;;;;;;;;;12.70;1.00;;;;;;5079857;28;19927;-81
2022/05/13 01:20:10;;;;;;;;;;;12.50;1.00;;;;;;5087025;28;20438;-82
2022/05/13 01:28:47;;;;;;;;;;;12.40;1.00;;;;;;5089832;28;19956;-80
2022/05/13 01:31:21;;;;;;;;;;;12.30;1.00;;;;;;5085042;28;19958;-80
2022/05/13 01:36:49;;;;;;;;;;;12.20;1.00;;;;;;5094107;28;20381;-81
2022/05/13 01:45:21;;;;;;;;;;;12.00;1.00;;;;;;5082203;28;20366;-73
2022/05/13 01:47:46;;;;;;;;;;;11.90;1.00;;;;;;5073919;28;19908;-73
2022/05/13 01:50:12;;;;;;;;;;;11.80;1.00;;;;;;5073257;28;19912;-73
2022/05/13 01:52:41;;;;;;;;;;;11.80;1.00;;;;;;5073978;28;19915;-73
2022/05/13 01:55:07;;;;;;;;;;;11.80;1.00;;;;;;5077695;28;19909;-73
2022/05/13 01:57:32;;;;;;;;;;;11.80;1.00;;;;;;5090616;28;19942;-73
2022/05/13 02:00:17;;;;;;;;;;;11.70;1.00;;;;;;5079302;28;19962;-81
2022/05/13 02:09:05;;;;;;;;;;;11.60;1.00;;;;;;5015973;28;19931;-81
2022/05/13 02:14:34;;;;;;;;;;;11.50;1.00;;;;;;5026995;28;19999;-80
2022/05/13 02:26:09;;;;;;;;;;;11.20;1.00;;;;;;5015394;28;19916;-80
2022/05/13 02:28:53;;;;;;;;;;;11.20;1.00;;;;;;5015670;28;20026;-82
2022/05/13 02:31:19;;;;;;;;;;;11.20;1.00;;;;;;5015438;28;19914;-73
2022/05/13 02:33:47;;;;;;;;;;;11.10;1.00;;;;;;5015244;28;20296;-73
2022/05/13 02:36:13;;;;;;;;;;;11.10;1.00;;;;;;5014705;28;20598;-73
2022/05/13 02:38:39;;;;;;;;;;;11.00;1.00;;;;;;5028505;28;19920;-73
2022/05/13 02:41:11;;;;;;;;;;;11.00;1.00;;;;;;5069516;28;19921;-73
2022/05/13 02:43:37;;;;;;;;;;;10.90;1.00;;;;;;5090449;28;19952;-74
2022/05/13 02:46:03;;;;;;;;;;;10.90;1.00;;;;;;5074944;28;19912;-73
2022/05/13 02:48:29;;;;;;;;;;;10.90;1.00;;;;;;5090676;28;19961;-73
2022/05/13 02:50:55;;;;;;;;;;;10.90;1.00;;;;;;5080642;28;19908;-73
2022/05/13 02:53:21;;;;;;;;;;;10.80;1.00;;;;;;5076696;28;19948;-73
2022/05/13 02:55:47;;;;;;;;;;;10.80;1.00;;;;;;5076612;28;20351;-73
2022/05/13 02:58:17;;;;;;;;;;;10.80;1.00;;;;;;5076831;28;19962;-74
2022/05/13 03:00:44;;;;;;;;;;;10.80;1.00;;;;;;5088336;28;19912;-74
2022/05/13 03:03:10;;;;;;;;;;;10.70;1.00;;;;;;5095685;28;19908;-73
2022/05/13 03:05:36;;;;;;;;;;;10.70;1.00;;;;;;5083464;28;19915;-73
2022/05/13 03:08:07;;;;;;;;;;;10.60;1.00;;;;;;5090281;28;19908;-73
2022/05/13 03:10:35;;;;;;;;;;;10.60;1.00;;;;;;5089429;28;20374;-73
2022/05/13 03:13:01;;;;;;;;;;;10.60;1.00;;;;;;5077370;28;19958;-73
2022/05/13 03:15:29;;;;;;;;;;;10.50;1.00;;;;;;5077007;28;19999;-81
2022/05/13 03:20:58;;;;;;;;;;;10.50;1.00;;;;;;5091629;28;20290;-81
2022/05/13 03:32:32;;;;;;;;;;;10.30;1.00;;;;;;5069490;28;19965;-81
2022/05/13 03:35:34;;;;;;;;;;;10.30;1.00;;;;;;5096254;28;19908;-81
2022/05/13 03:38:34;;;;;;;;;;;10.30;1.00;;;;;;5079632;28;19912;-81
2022/05/13 03:44:23;;;;;;;;;;;10.20;1.00;;;;;;5071148;28;19959;-81
2022/05/13 03:46:48;;;;;;;;;;;10.10;1.00;;;;;;5092617;28;19962;-73
2022/05/13 03:49:14;;;;;;;;;;;10.10;1.00;;;;;;5075926;28;19912;-70
2022/05/13 03:51:40;;;;;;;;;;;10.10;1.00;;;;;;5075155;28;20313;-70
2022/05/13 03:54:05;;;;;;;;;;;10.00;1.00;;;;;;5086074;28;19912;-70
2022/05/13 03:56:31;;;;;;;;;;;10.00;1.00;;;;;;5078469;28;19943;-70
2022/05/13 03:58:57;;;;;;;;;;;10.00;1.00;;;;;;5086340;28;19916;-70
2022/05/13 04:01:22;;;;;;;;;;;10.00;1.00;;;;;;5093695;28;19908;-70
2022/05/13 04:03:48;;;;;;;;;;;10.00;1.00;;;;;;5086302;28;19916;-70
2022/05/13 04:08:59;;;;;;;;;;;10.00;1.00;;;;;;5075934;28;19920;-73
2022/05/13 04:11:25;;;;;;;;;;;10.00;1.00;;;;;;5088580;28;20299;-73
2022/05/13 04:22:40;;;;;;;;;;;10.10;1.00;;;;;;5064964;28;19969;-75
2022/05/13 04:25:17;;;;;;;;;;;10.10;1.00;;;;;;5080458;28;19917;-74
2022/05/13 04:27:47;;;;;;;;;;;10.10;1.00;;;;;;5074885;28;20359;-75
2022/05/13 04:30:23;;;;;;;;;;;10.10;1.00;;;;;;5089459;28;19947;-74
2022/05/13 04:32:48;;;;;;;;;;;10.00;1.00;;;;;;5095380;28;19908;-75
2022/05/13 04:35:14;;;;;;;;;;;10.10;1.00;;;;;;5061521;28;19982;-74
2022/05/13 04:37:47;;;;;;;;;;;10.20;1.00;;;;;;5074770;28;19908;-74
2022/05/13 04:40:13;;;;;;;;;;;10.20;1.00;;;;;;5091825;28;19950;-74
2022/05/13 04:42:50;;;;;;;;;;;10.30;1.00;;;;;;5083693;28;19923;-74
2022/05/13 04:45:53;;;;;;;;;;;10.40;1.00;;;;;;5089024;28;19923;-77
2022/05/13 04:51:21;;;;;;;;;;;10.70;1.00;;;;;;5074261;28;20386;-73
2022/05/13 04:53:48;;;;;;;;;;;10.80;1.00;;;;;;5079272;28;19912;-73
2022/05/13 04:56:23;;;;;;;;;;;10.90;1.00;;;;;;5059546;28;19909;-74
2022/05/13 04:58:49;;;;;;;;;;;11.00;1.00;;;;;;5071832;28;20410;-74
2022/05/13 05:01:16;;;;;;;;;;;11.10;1.00;;;;;;5091249;28;19908;-74
2022/05/13 05:03:42;;;;;;;;;;;11.20;1.00;;;;;;5085108;28;19916;-74
2022/05/13 05:06:08;;;;;;;;;;;11.30;1.00;;;;;;5074242;28;19924;-74
2022/05/13 05:08:34;;;;;;;;;;;11.50;1.00;;;;;;5074227;28;19913;-74
2022/05/13 05:11:01;;;;;;;;;;;11.60;1.00;;;;;;5074282;28;20043;-74
2022/05/13 05:13:28;;;;;;;;;;;11.80;1.00;;;;;;5070076;28;19935;-74
2022/05/13 05:18:59;;;;;;;;;;;12.30;1.00;;;;;;5093216;28;20022;-82
2022/05/13 05:24:28;;;;;;;;;;;12.80;1.00;;;;;;5054216;28;19927;-82
2022/05/13 05:30:29;;;;;;;;;;;13.10;1.00;;;;;;5071641;28;19916;-81
2022/05/13 05:32:55;;;;;;;;;;;13.30;1.00;;;;;;5071326;28;19916;-74
2022/05/13 05:35:22;;;;;;;;;;;13.50;1.00;;;;;;5067707;28;19916;-74
2022/05/13 05:37:48;;;;;;;;;;;13.50;1.00;;;;;;5072118;28;19933;-74
2022/05/13 05:40:13;;;;;;;;;;;13.60;1.00;;;;;;5066883;28;19917;-74
2022/05/13 05:42:40;;;;;;;;;;;13.70;1.00;;;;;;5075759;28;19948;-74
2022/05/13 05:45:08;;;;;;;9.85;4.03;;;13.80;1.00;;;;;;5073247;28;20407;-74
2022/05/13 05:47:34;;;;;;;3.60;3.30;;;14.00;1.00;;;;;;5073706;28;20250;-74
2022/05/13 05:50:00;;;;;;;;;;;14.20;1.00;;;;;;5073829;28;20422;-74
2022/05/13 05:52:26;;;;;;;;;;;14.40;1.00;;;;;;5074005;28;19904;-75
2022/05/13 05:58:02;;;;;;;;;;;14.70;99.90;;;;;;5084944;28;19955;-74
2022/05/13 06:00:28;;;;;;;;;;;14.90;99.90;;;;;;5081958;28;19904;-74
2022/05/13 06:02:59;;;;;;;;;;;15.00;99.90;;;;;;5087617;28;19904;-74
2022/05/13 06:05:29;;;;;;;;;;;15.10;99.90;;;;;;5073766;28;20007;-74
2022/05/13 06:08:00;;;;;;;;;;;15.20;99.90;;;;;;5060209;28;19904;-74
2022/05/13 06:10:26;;;;;;;;;;;15.10;99.90;;;;;;5087707;28;19967;-74
2022/05/13 06:12:52;;;;;;;;;;;15.10;99.90;;;;;;5081646;28;19910;-74
2022/05/13 06:15:18;;;;;;;;;;;15.10;99.90;;;;;;5067988;28;19958;-74
2022/05/13 06:20:47;;;;;;;;;;;15.20;99.90;;;;;;5094119;28;19911;-83
2022/05/13 06:26:15;;;;;;;;;;;15.40;99.90;;;;;;5073623;28;19918;-83
2022/05/13 06:28:41;;;;;;;;;;;15.50;99.90;;;;;;5073790;28;19995;-82
2022/05/13 06:31:07;;;;;;;;;;;15.60;99.90;;;;;;5055302;28;19908;-76
2022/05/13 06:33:34;;;;;;;;;;;15.60;99.90;;;;;;5073537;28;20275;-74
2022/05/13 06:35:59;;;;;;;;;;;15.70;99.90;;;;;;5080639;28;19908;-74
2022/05/13 06:38:25;;;;;;;;;;;15.80;99.90;;;;;;5075524;28;20335;-74
2022/05/13 06:40:52;;;;;;;;;;;15.90;99.90;;;;;;5087271;28;19912;-74
2022/05/13 06:43:18;;;;;;;;;;;16.10;99.90;;;;;;5078819;28;19911;-74
2022/05/13 06:45:44;;;;;;;;;;;16.20;99.90;;;;;;5077205;28;19905;-74
2022/05/13 06:48:10;;;;;;;;;;;16.30;99.90;;;;;;5080871;28;20404;-74
2022/05/13 06:50:36;;;;;;;;;;;16.40;99.90;;;;;;5086151;28;19905;-74
2022/05/13 06:53:02;;;;;;;;;;;16.50;99.90;;;;;;5090591;28;19911;-74
2022/05/13 06:55:29;;;;;;;;;;;16.60;99.90;;;;;;5087789;28;19994;-74
2022/05/13 06:57:54;;;;;;;;;;;16.70;99.90;;;;;;5079261;28;19904;-74
2022/05/13 07:00:20;;;;;;;;;;;16.90;99.90;;;;;;5087467;28;20003;-74
2022/05/13 07:06:17;;;;;;;;;;;17.50;99.90;;;;;;5083542;28;19916;-83
2022/05/13 07:11:45;;;;;;;;;;;17.80;99.90;;;;;;5088831;28;19919;-83
2022/05/13 07:17:13;;;;;;;;;;;17.80;99.90;;;;;;5083628;28;19923;-74
2022/05/13 07:19:39;;;;;;;;;;;17.90;99.90;;;;;;5096808;28;19904;-74
2022/05/13 07:22:06;;;;;;;;;;;17.90;99.90;;;;;;5080491;28;19913;-74
2022/05/13 07:24:31;;;;;;;;;;;17.80;99.90;;;;;;5076295;28;19950;-74
2022/05/13 07:26:58;;;;;;;;;;;17.80;99.90;;;;;;5060989;28;20327;-74
2022/05/13 07:29:30;;;;;;;;;;;17.70;99.90;;;;;;5086842;28;19908;-73
2022/05/13 07:32:05;;;;;;;;;;;17.70;99.90;;;;;;5080240;28;19904;-74
2022/05/13 07:34:31;;;;;;;;;;;17.70;99.90;;;;;;5084669;28;19908;-74
2022/05/13 07:36:56;;;;;;;;;;;17.80;99.90;;;;;;5080780;28;19911;-74
2022/05/13 07:42:08;;;;;;;;;;;17.90;99.90;;;;;;5070512;28;19915;-74
2022/05/13 07:44:34;;;;;;;;;;;17.90;99.90;;;;;;5082259;28;20348;-73
2022/05/13 07:47:04;;;;;;;;;;;18.00;99.90;;;;;;5089241;28;19909;-73
2022/05/13 07:49:29;;;;;;;;;;;18.00;99.90;;;;;;5075835;28;19904;-73
2022/05/13 07:51:59;;;;;;;;;;;18.10;99.90;;;;;;5082626;28;20408;-74
2022/05/13 07:54:25;;;;;;;;;;;18.10;99.90;;;;;;5081132;28;20410;-74
2022/05/13 07:56:50;;;;;;;;;;;18.10;99.90;;;;;;5083981;28;20006;-73
2022/05/13 07:59:23;;;;;;;;;;;18.10;99.90;;;;;;5082323;28;19905;-73
2022/05/13 08:14:01;;;;;;;;;;;18.50;99.90;;;;;;5082140;28;19951;-83
2022/05/13 08:16:59;;;;;;;;;;;18.50;99.90;;;;;;5086894;28;19930;-82
2022/05/13 08:19:24;;;;;;;;;;;18.60;99.90;;;;;;5075501;28;19912;-74
2022/05/13 08:21:50;;;;;;;;;;;18.70;99.90;;;;;;5075204;28;19904;-74
2022/05/13 08:24:16;;;;;;;;;;;18.80;99.90;;;;;;5075072;28;20018;-73
2022/05/13 08:26:41;;;;;;;;;;;18.70;99.90;;;;;;5088461;28;19933;-73
2022/05/13 08:29:07;;;;;;;;;;;18.50;99.90;;;;;;5075208;28;19962;-73
2022/05/13 08:31:32;;;;;;;;;;;18.60;99.90;;;;;;5088361;28;20387;-73
2022/05/13 08:40:04;;;;;;;;;;;18.70;99.90;;;;;;5078698;28;19955;-82
2022/05/13 08:48:54;;;;;;;;;;;18.60;99.90;;;;;;5069549;28;20267;-73
2022/05/13 08:51:38;;;;;;;;;;;18.70;99.90;;;;;;5094810;28;19911;-73
2022/05/13 08:54:14;;;;;;;;;;;18.70;99.90;;;;;;5082856;28;19904;-73
2022/05/13 08:56:41;;;;;;;;;;;18.80;99.90;;;;;;5067789;28;20271;-73
2022/05/13 08:59:13;;;;;;;;;;;19.00;99.90;;;;;;5094788;28;19904;-73
2022/05/13 09:01:46;;;;;;;;;;;19.10;99.90;;;;;;5074435;28;19916;-73
2022/05/13 09:04:41;;;;;;;;;;;19.30;99.90;;;;;;5088187;28;19908;-82
2022/05/13 09:10:10;;;;;;;;;;;19.80;99.90;;;;;;5083290;28;19954;-83
2022/05/13 09:15:42;;;;;;;;;;;19.90;99.90;;;;;;5087969;28;19996;-81
2022/05/13 09:18:13;;;;;;;;;;;20.10;99.90;;;;;;5084706;28;19904;-81
2022/05/13 09:29:48;;;;;;;;;;;20.60;99.90;;;;;;5081510;28;20000;-82
2022/05/13 09:32:15;;;;;;;;;;;20.80;99.90;;;;;;5079743;28;19939;-82
2022/05/13 09:37:49;;;;;;;;;;;20.80;99.90;;;;;;5062406;28;19911;-81
2022/05/13 09:43:30;;;;;;;;;;;20.90;99.90;;;;;;5080503;28;19989;-81
2022/05/13 09:49:01;;;;;;;;;;;21.10;99.90;;;;;;5075267;28;19910;-73
2022/05/13 09:51:30;;;;;;;;;;;21.50;99.90;;;;;;5093952;28;19904;-73
2022/05/13 09:54:05;;;;;;;;;;;21.60;99.90;;;;;;5094114;28;19904;-72
2022/05/13 09:56:38;;;;;;;;;;;21.60;99.90;;;;;;5082029;28;20314;-72
2022/05/13 09:59:18;;;;;;;;;;;21.60;99.90;;;;;;5078050;28;19909;-72
2022/05/13 10:01:44;;;;;;;;;;;21.80;99.90;;;;;;5071088;28;19904;-73
2022/05/13 10:04:27;;;;;;;;;;;21.70;99.90;;;;;;5093739;28;19924;-72
2022/05/13 10:07:03;;;;;;;;;;;21.90;99.90;;;;;;5093938;28;19911;-73
2022/05/13 10:15:14;;;;;;;;;;;22.10;99.90;;;;;;5096368;28;19910;-73
2022/05/13 10:17:45;;;;;;;;;;;21.80;99.90;;;;;;5077691;28;19911;-73
2022/05/13 10:26:18;;;;;;;;;;;21.80;99.90;;;;;;5078153;28;19982;-81
2022/05/13 10:29:19;;;;;;;;;;;21.80;99.90;;;;;;5097626;28;20014;-73
2022/05/13 10:31:46;;;;;;;;;;;21.90;99.90;;;;;;4995531;28;20353;-73
2022/05/13 10:34:33;;;;;;;;;;;21.90;99.90;;;;;;4996182;28;19910;-73
2022/05/13 10:37:05;;;;;;;;;;;21.90;99.90;;;;;;4990254;28;19907;-73
2022/05/13 10:39:36;;;;;;;;;;;22.10;99.90;;;;;;4988595;28;20019;-73
2022/05/13 10:42:09;;;;;;;;;;;22.20;99.90;;;;;;4975819;28;19914;-73
2022/05/13 10:44:46;;;;;;;;;;;22.20;99.90;;;;;;4972698;28;20065;-73
2022/05/13 10:47:15;;;;;;;;;;;22.20;99.90;;;;;;4974648;28;19921;-74
2022/05/13 10:49:42;;;;;;;;;;;22.10;99.90;;;;;;4975513;28;19917;-74
2022/05/13 10:52:35;;;;;;;;;;;21.80;99.90;;;;;;4962105;28;19933;-77
2022/05/13 10:55:13;;;;;;;;;;;21.70;99.90;;;;;;4970933;28;20344;-74
2022/05/13 10:57:53;;;;;;;;;;;22.10;99.90;;;;;;4974726;28;19964;-74
2022/05/13 11:00:20;;;;;;;;;;;22.30;99.90;;;;;;4980493;28;19917;-75
2022/05/13 11:03:07;;;;;;;;;;;22.10;99.90;;;;;;4985642;28;19956;-74
2022/05/13 11:05:45;;;;;;;;;;;21.70;99.90;;;;;;5012221;28;20318;-74
2022/05/13 11:08:20;;;;;;;;;;;21.80;99.90;;;;;;5059485;28;20393;-74
2022/05/13 11:11:05;;;;;;;;;;;22.00;99.90;;;;;;5097067;28;19904;-74
2022/05/13 11:13:48;;;;;;;;;;;21.50;99.90;;;;;;5078847;28;19916;-73
2022/05/13 11:16:22;;;;;;;;;;;21.50;99.90;;;;;;5090311;28;19954;-74
2022/05/13 11:19:00;;;;;;;;;;;21.30;99.90;;;;;;5077004;28;20298;-74
2022/05/13 11:21:38;;;;;;;;;;;21.60;99.90;;;;;;5079749;28;19908;-74
2022/05/13 11:27:07;;;;;;;;;;;22.20;99.90;;;;;;5065086;28;19920;-74
2022/05/13 11:29:35;;;;;;;;;;;22.60;99.90;;;;;;5076222;28;20248;-74
2022/05/13 11:32:19;;;;;;;;;;;22.40;99.90;;;;;;5076038;28;19931;-74
2022/05/13 11:34:53;;;;;;;;;;;22.30;99.90;;;;;;5076208;28;19985;-75
2022/05/13 11:37:21;;;;;;;;;;;22.20;99.90;;;;;;5089734;28;19908;-74
2022/05/13 11:40:06;;;;;;;;;;;22.30;99.90;;;;;;5081860;28;20350;-75
2022/05/13 11:43:18;;;;;;;;;;;22.30;99.90;;;;;;5086666;28;19916;-74
2022/05/13 11:45:37;;;;;;;;;;;22.30;99.90;;;;;;5076697;28;19912;-74
2022/05/13 11:48:21;;;;;;;;;;;22.20;99.90;;;;;;5071128;28;19961;-74
2022/05/13 11:50:47;;;;;;;;;;;22.00;99.90;;;;;;5078519;28;19996;-74
2022/05/13 11:53:32;;;;;;;;;;;22.10;99.90;;;;;;5075704;28;19909;-74
2022/05/13 11:56:11;;;;;;;;;;;22.10;99.90;;;;;;5084140;28;19943;-74
2022/05/13 11:58:47;;;;;;;;;;;22.30;99.90;;;;;;5086409;28;20320;-74
2022/05/13 12:01:37;;;;;;;;;;;22.20;99.90;;;;;;5093492;28;19908;-74
2022/05/13 12:04:12;;;;;;;;;;;22.50;99.90;;;;;;4972619;28;20305;-74
2022/05/13 12:13:01;;;;;;;;;;;22.70;99.90;;;;;;4955171;29;19914;-78
2022/05/13 12:15:59;;;;;;;;;;;22.80;99.90;;;;;;4969360;28;20389;-79
2022/05/13 12:18:59;;;;;;;;;;;22.90;99.90;;;;;;4986452;28;19929;-79
2022/05/13 12:21:38;;;;;;;;;;;23.00;99.90;;;;;;4985080;28;19905;-79
2022/05/13 12:24:04;;;;;;;;;;;23.30;99.90;;;;;;4980620;28;19909;-78
2022/05/13 12:26:48;;;;;;;;;;;23.20;99.90;;;;;;4962954;28;20362;-78
2022/05/13 12:29:39;;;;;;;;;;;23.20;99.90;;;;;;4974399;28;20281;-78
2022/05/13 12:32:05;;;;;;;;;;;23.10;99.90;;;;;;4978581;28;19972;-79
2022/05/13 12:37:36;;;;;;;;;;;23.10;99.90;;;;;;4993184;28;19971;-79
2022/05/13 12:43:19;;;;;;;;;;;23.40;99.90;;;;;;5092162;28;19914;-79
2022/05/13 12:49:17;;;;;;;;;;;23.90;99.90;;;;;;5073251;28;20320;-79
2022/05/13 12:52:07;;;;;;;;;;;23.50;99.90;;;;;;5095207;28;19904;-75
2022/05/13 12:54:36;;;;;;;;;;;23.50;99.90;;;;;;5078148;28;19996;-75
2022/05/13 12:57:13;;;;;;;;;;;23.40;99.90;;;;;;5074570;28;20340;-75
2022/05/13 12:59:39;;;;;;;;;;;23.60;99.90;;;;;;5088229;28;19931;-75
2022/05/13 13:02:06;;;;;;;;;;;23.70;99.90;;;;;;5086441;28;19926;-75
2022/05/13 13:04:35;;;;;;;;;;;23.80;99.90;;;;;;5075923;28;19913;-75
2022/05/13 13:07:35;;;;;;;;;;;24.00;99.90;;;;;;5074510;28;19923;-79
2022/05/13 13:10:29;;;;;;;;;;;24.10;99.90;;;;;;5075325;28;20009;-78
2022/05/13 13:13:19;;;;;;;;;;;24.40;99.90;;;;;;5086717;28;19937;-78
2022/05/13 13:16:03;;;;;;;;;;;24.60;99.90;;;;;;5078326;28;19904;-78
2022/05/13 13:18:31;;;;;;;;;;;24.60;99.90;;;;;;5094618;28;20022;-78
2022/05/13 13:21:12;;;;;;;;;;;24.80;99.90;;;;;;5081757;28;20267;-75
2022/05/13 13:26:41;;;;;;;;;;;24.90;99.90;;;;;;5080534;28;19978;-75
2022/05/13 13:29:07;;;;;;;;;;;24.50;99.90;;;;;;5087363;28;19977;-76
2022/05/13 13:31:38;;;;;;;;;;;24.50;99.90;;;;;;5087795;28;20354;-75
2022/05/13 13:34:04;;;;;;;;;;;24.80;99.90;;;;;;5073568;28;20366;-76
2022/05/13 13:36:59;;;;;;;;;;;24.80;99.90;;;;;;5076139;28;19908;-79
2022/05/13 13:39:59;;;;;;;;;;;25.00;99.90;;;;;;5066323;28;19904;-79
2022/05/13 13:42:32;;;;;;;;;;;25.10;99.90;;;;;;5073736;28;20000;-79
2022/05/13 13:45:16;;;;;;;;;;;25.00;99.90;;;;;;5087374;28;19954;-79
2022/05/13 13:48:00;;;;;;;;;;;24.70;99.90;;;;;;5056297;28;20308;-79
2022/05/13 13:50:30;;;;;;;;;;;24.40;99.90;;;;;;5070068;28;19904;-80
2022/05/13 13:52:59;;;;;;;;;;;24.50;99.90;;;;;;5078506;28;19947;-76
2022/05/13 13:55:38;;;;;;;;;;;25.00;99.90;;;;;;5073816;28;19904;-75
2022/05/13 13:58:12;;;;;;;;;;;25.00;99.90;;;;;;5073915;28;20053;-76
2022/05/13 14:00:40;;;;;;;;;;;25.20;99.90;;;;;;5073803;28;19908;-76
2022/05/13 14:03:13;;;;;;;;;;;25.30;99.90;;;;;;5073994;28;20369;-75
2022/05/13 14:05:43;;;;;;;;;;;25.30;99.90;;;;;;5073989;28;19909;-75
2022/05/13 14:08:17;;;;;;;;;;;25.40;99.90;;;;;;5078595;28;19908;-76
2022/05/13 14:10:48;;;;;;;;;;;25.40;99.90;;;;;;5073723;28;19905;-76
2022/05/13 14:13:14;;;;;;;;;;;25.40;99.90;;;;;;5073757;28;19904;-75
2022/05/13 14:16:13;;;;;;;;;;;25.40;99.90;;;;;;5087135;28;19911;-77
2022/05/13 14:18:40;;;;;;;;;;;25.70;99.90;;;;;;4991843;28;19909;-75
2022/05/13 14:21:17;;;;;;;;;;;25.60;99.90;;;;;;4992217;28;19905;-75
2022/05/13 14:23:56;;;;;;;;;;;26.00;99.90;;;;;;4985015;28;19906;-76
2022/05/13 14:26:21;;;;;;;;;;;26.10;99.90;;;;;;4985318;28;19952;-77
2022/05/13 14:28:49;;;;;;;;;;;26.10;99.90;;;;;;5005481;28;19941;-76
2022/05/13 14:31:34;;;;;;;;;;;25.80;99.90;;;;;;4992277;28;19905;-78
2022/05/13 14:34:26;;;;;;;;;;;25.80;99.90;;;;;;4991844;28;19949;-75
2022/05/13 14:36:56;;;;;;;;;;;25.60;99.90;;;;;;4974334;28;19905;-78
2022/05/13 14:39:49;;;;;;;;;;;25.60;99.90;;;;;;4996733;28;20101;-77
2022/05/13 14:42:30;;;;;;;;;;;25.60;99.90;;;;;;5002930;28;19916;-79
2022/05/13 14:45:13;;;;;;;;;;;25.80;99.90;;;;;;5004574;28;19913;-77
2022/05/13 14:47:48;;;;;;;;;;;26.00;99.90;;;;;;5004548;28;19905;-78
2022/05/13 14:50:33;;;;;;;;;;;26.20;99.90;;;;;;4999128;28;19910;-76
2022/05/13 14:53:23;;;;;;;;;;;26.40;99.90;;;;;;4999006;28;19905;-77
2022/05/13 14:56:01;;;;;;;;;;;26.80;99.90;;;;;;5078049;28;20069;-77
2022/05/13 14:58:47;;;;;;;;;;;26.60;99.90;;;;;;5074962;28;19923;-77
2022/05/13 15:10:41;;;;;;;;;;;26.30;99.90;;;;;;5086891;28;20035;-84
2022/05/13 15:13:41;;;;;;;;;;;26.70;99.90;;;;;;5077129;28;19912;-85
2022/05/13 15:16:09;;;;;;;;;;;26.80;99.90;;;;;;5080406;28;19911;-73
2022/05/13 15:18:37;;;;;;;;;;;27.50;99.90;;;;;;5090438;28;20301;-73
2022/05/13 15:21:04;;;;;;;;;;;28.60;99.90;;;;;;5070751;28;20256;-73
2022/05/13 15:23:29;;;;;;;;;;;29.80;99.90;;;;;;5073951;28;19905;-73
2022/05/13 15:25:55;;;;;;;;;;;30.70;99.90;;;;;;5084041;28;20022;-74
2022/05/13 15:28:21;;;;;;;;;;;31.50;99.90;;;;;;5096174;28;19912;-73
2022/05/13 15:30:48;;;;;;;;;;;32.20;99.90;;;;;;5096487;28;19911;-73
2022/05/13 15:33:14;;;;;;;;;;;32.80;99.90;;;;;;5096246;28;19904;-74
2022/05/13 15:35:39;;;;;;;;;;;33.40;99.90;;;;;;5096162;28;19911;-74
2022/05/13 15:41:17;;;;;;;;;;;34.00;99.90;;;;;;5077799;28;19916;-81
2022/05/13 15:44:18;;;;;;;;;;;35.00;99.90;;;;;;5056275;28;20275;-81
2022/05/13 15:46:47;;;;;;;;;;;35.70;99.90;;;;;;5068502;28;19909;-76
2022/05/13 15:54:48;;;;;;;;;;;35.50;99.90;;;;;;5071848;28;19931;-74
2022/05/13 15:57:15;;;;;;;;;;;35.30;99.90;;;;;;5087664;28;20363;-75
2022/05/13 15:59:41;;;;;;;;;;;35.60;99.90;;;;;;5075875;28;20274;-75
2022/05/13 16:02:23;;;;;;;;;;;35.10;99.90;;;;;;5075622;28;20331;-76
2022/05/13 16:04:49;;;;;;;;;;;35.40;99.90;;;;;;5066105;28;19913;-75
2022/05/13 16:07:14;;;;;;;;;;;35.60;99.90;;;;;;5077518;28;19943;-74
2022/05/13 16:09:41;;;;;;;;;;;35.80;99.90;;;;;;5071805;28;19915;-75
2022/05/13 16:12:08;;;;;;;;;;;36.50;99.90;;;;;;5075177;28;19924;-75
2022/05/13 16:14:34;;;;;;;;;;;37.00;99.90;;;;;;5075210;28;19966;-76
2022/05/13 16:17:04;;;;;;;;;;;36.80;99.90;;;;;;5082587;28;19935;-75
2022/05/13 16:19:30;;;;;;;;;;;37.10;99.90;;;;;;5094186;28;19957;-75
2022/05/13 16:22:00;;;;;;;;;;;36.40;99.90;;;;;;5074833;28;19908;-75
2022/05/13 16:24:28;;;;;;;;;;;36.50;99.90;;;;;;5076419;28;19958;-72
2022/05/13 16:26:56;;;;;;;;;;;36.10;99.90;;;;;;5094427;28;20208;-73
2022/05/13 16:29:22;;;;;;;;;;;35.10;99.90;;;;;;5089952;28;20002;-73
2022/05/13 16:31:48;;;;;;;;;;;34.90;99.90;;;;;;5086941;28;20402;-73
2022/05/13 16:34:14;;;;;;;;;;;34.80;99.90;;;;;;5089773;28;19908;-72
2022/05/13 16:39:24;;;;;;;;;;;35.30;99.90;;;;;;5087619;28;19922;-72
2022/05/13 16:41:50;;;;;;;;;;;35.40;99.90;;;;;;5083181;28;19916;-72
2022/05/13 16:44:15;;;;;;;;;;;35.50;99.90;;;;;;5095087;28;19912;-72
2022/05/13 16:46:41;;;;;;;;;;;36.10;99.90;;;;;;5078946;28;19991;-72
2022/05/13 16:49:07;;;;;;;;;;;36.20;99.90;;;;;;5094978;28;20361;-72
2022/05/13 16:51:32;;;;;;;;;;;36.90;99.90;;;;;;5079974;28;19912;-73
2022/05/13 16:53:59;;;;;;;;;;;37.50;99.90;;;;;;5095313;28;19908;-75
2022/05/13 16:56:25;;;;;;;;;;;38.20;99.90;;;;;;5078382;28;20267;-75
2022/05/13 16:58:50;;;;;;;;;;;38.80;99.90;;;;;;5064801;28;19908;-75
2022/05/13 17:01:16;;;;;;;;;;;39.90;99.90;;;;;;5079699;28;19958;-75
2022/05/13 17:03:42;;;;;;;;;;;40.70;99.90;;;;;;5074484;28;19970;-75
2022/05/13 17:06:12;;;;;;;;;;;41.20;99.90;;;;;;5074433;28;19908;-74
2022/05/13 17:16:52;;;;;;;;;;;39.60;99.90;;;;;;5085272;28;20424;-75
2022/05/13 17:19:17;;;;;;;;;;;38.40;99.90;;;;;;5087709;28;19912;-75
2022/05/13 17:21:59;;;;;;;;;;;37.30;99.90;;;;;;5074374;28;19973;-76
2022/05/13 17:24:33;;;;;;;;;;;36.40;99.90;;;;;;5073659;28;19912;-76
2022/05/13 17:27:05;;;;;;;;;;;35.40;99.90;;;;;;5074314;28;19916;-75
2022/05/13 17:29:36;;;;;;;;;;;34.50;99.90;;;;;;5071715;28;19912;-76
2022/05/13 17:32:01;;;;;;;;;;;33.60;99.90;;;;;;5073923;28;19951;-75
2022/05/13 17:34:27;;;;;;;;;;;32.70;99.90;;;;;;5074136;28;19946;-75
2022/05/13 17:36:56;;;;;;;;;;;31.80;99.90;;;;;;5078337;28;19962;-75
2022/05/13 17:39:23;;;;;;;;;;;30.90;99.90;;;;;;5094994;28;19916;-75
2022/05/13 17:41:54;;;;;;;;;;;30.10;99.90;;;;;;5075613;28;19917;-75
2022/05/13 17:44:41;;;;;;;;;;;29.40;99.90;;;;;;5073954;28;19923;-75
2022/05/13 17:47:11;;;;;;;;;;;28.60;99.90;;;;;;5070502;28;19920;-75
2022/05/13 17:49:36;;;;;;;;;;;27.80;99.90;;;;;;5080522;28;19909;-75
2022/05/13 17:52:02;;;;;;;;;;;27.20;99.90;;;;;;5094317;28;19995;-75
2022/05/13 17:54:29;;;;;;;;;;;26.70;99.90;;;;;;5079181;28;19963;-76
2022/05/13 17:57:05;;;;;;;;;;;26.20;99.90;;;;;;5074266;28;20030;-76
2022/05/13 17:59:31;;;;;;;;;;;25.70;99.90;;;;;;5073900;28;20332;-75
2022/05/13 18:01:59;;;;;;;;;;;25.20;99.90;;;;;;5077964;28;19919;-75
2022/05/13 18:04:25;;;;;;;;;;;24.80;99.90;;;;;;5080334;28;19920;-74
2022/05/13 18:06:53;;;;;;;;;;;24.20;99.90;;;;;;5084414;28;19913;-74
2022/05/13 18:09:35;;;;;;;;;;;23.90;99.90;;;;;;5091509;28;19958;-74
2022/05/13 18:12:02;;;;;;;;;;;23.50;99.90;;;;;;5081171;28;20355;-74
2022/05/13 18:15:32;;;;;;;;;;;23.00;99.90;;;;;;5065128;28;19919;-74
2022/05/13 18:18:29;;;;;;;;;;;22.70;99.90;;;;;;5040606;28;20008;-77
2022/05/13 18:20:47;;;;;;;;;;;22.40;99.90;;;;;;5035693;28;19936;-75
2022/05/13 18:23:17;;;;;;;;;;;22.10;99.90;;;;;;5051622;28;19909;-74
2022/05/13 18:25:44;;;;;;;;;;;21.80;99.90;;;;;;5051940;28;19909;-74
2022/05/13 18:28:12;;;;;;;;;;;21.40;99.90;;;;;;5051510;28;19912;-74
2022/05/13 18:30:37;;;;;;;;;;;21.10;99.90;;;;;;5051436;28;20434;-74
2022/05/13 18:33:03;;;;;;;;;;;20.90;99.90;;;;;;5041207;28;19913;-75
2022/05/13 18:35:35;;;;;;;;;;;20.60;99.90;;;;;;5036158;28;19909;-76
2022/05/13 18:38:18;;;;;;;;;;;20.40;99.90;;;;;;5045102;28;20000;-76
2022/05/13 18:46:21;;;;;;;;;;;19.60;99.90;;;;;;5032271;28;20379;-72
2022/05/13 18:48:47;;;;;;;;;;;19.40;99.90;;;;;;5025426;28;20029;-72
2022/05/13 18:51:14;;;;;;;;;;;19.20;99.90;;;;;;5048780;28;19975;-72